Portada
METAR-TAF:

METAR-TAF

Aeroports :

Burgos, Espanya

latitud: 42-22N, longitud: 003-38W, altitud: 894 m

Observació

L'informe es va fer fa 31 minuts, a les 04:00 UTC
Vent 13 kt del Est/Nord-Est
Temperatura 8°C
Humitat 93%
Pressió 1015 hPa
Visibilitat 10 km o més
Cel ennuvolat a una alçada de 700 ft

METAR: LEBG 190400Z AUTO 06013KT 9999 BKN007 08/07 Q1015

Hora: 06:31 (04:31 UTC)

Pronòstic

L'informe es va fer fa 2 hores i 31 minuts, a les 02:00 UTC
Pronòstic vàlid del 19 a les 03 UTC al 19 a les 12 UTC
Vent 10 kt del Est/Nord-Est
Visibilitat 10 km o més
Escasses núvols a una alçada de 1200 ft
Cel ennuvolat a una alçada de 4000 ft
Probabilitat 40% :
Temporalment
l' 19 a les 03 UTC al 19 a les 12 UTC
pluja
Probabilitat 30% :
Temporalment
l' 19 a les 03 UTC al 19 a les 12 UTC
Visibilitat: 3000 m
Cel ennuvolat a una alçada de 600 ft
boirina

TAF: LEBG 190200Z 1903/1912 07010KT 9999 FEW012 BKN040 PROB40 TEMPO 1903/1912 RA PROB30 TEMPO 1903/1912 3000 BR BKN006

Observacions i pronòstics meteorològics de més de 4000 aeroports (METAR i TAF).

Les estacions disponibles són els punts grocs i vermells al mapa.

Posi el ratolí al punt desitjat per veure el nom de l'estació.

Feu clic per veure les observacions i els pronòstics meteorològics.

Per canviar el mapa: feu clic els botons verds amb una creu de color negre per apropar; al botó verd amb un guió per allunyar la imatge; o en les fletxes verdes per a mapes adjacents.


METAR-TAF: